Time;durP1;ratioP1;P1;durP2;ratioP2;P2;SDS_P1;SDS_P2;PMS_P1;PMS_P2;Temp;Humidity;BMP_temperature;BMP_pressure;BME280_temperature;BME280_humidity;BME280_pressure;Samples;Min_cycle;Max_cycle;Signal;HPM_P1;HPM_P2
2023/06/05 11:31:31;;;;;;;3.88;2.85;;;28.10;67.10;;;;;;5115159;27;20289;-74
2023/06/05 11:33:56;;;;;;;3.53;3.25;;;28.60;65.80;;;;;;5111406;28;20193;-77
2023/06/05 11:36:26;;;;;;;3.50;3.35;;;28.90;65.00;;;;;;5094111;28;20184;-76
2023/06/05 11:38:57;;;;;;;3.83;3.63;;;29.20;64.10;;;;;;5101861;28;20177;-77
2023/06/05 11:41:25;;;;;;;3.60;3.42;;;29.40;62.30;;;;;;5113479;28;20196;-75
2023/06/05 11:43:51;;;;;;;3.35;3.15;;;29.40;62.30;;;;;;5110394;28;20941;-75
2023/06/05 11:46:17;;;;;;;3.30;3.20;;;;;;;;;;5111926;28;20189;-75
2023/06/05 11:48:46;;;;;;;3.80;3.60;;;29.90;64.40;;;;;;5116295;28;20234;-76
2023/06/05 11:51:12;;;;;;;4.18;3.75;;;30.30;63.20;;;;;;5112703;28;20209;-75
2023/06/05 11:53:45;;;;;;;3.45;3.08;;;31.10;62.10;;;;;;5111468;28;20183;-77
2023/06/05 11:56:16;;;;;;;3.03;2.83;;;31.50;61.20;;;;;;5094087;28;20188;-75
2023/06/05 11:58:43;;;;;;;103.53;55.53;;;;;;;;;;5091698;28;20171;-75
2023/06/05 12:01:17;;;;;;;3.60;3.30;;;;;;;;;;5109106;28;20188;-76
2023/06/05 12:03:44;;;;;;;3.30;2.83;;;32.10;57.90;;;;;;5093328;28;20197;-77
2023/06/05 12:06:12;;;;;;;3.67;3.40;;;32.20;60.90;;;;;;5112566;28;20224;-76
2023/06/05 12:08:39;;;;;;;3.40;3.28;;;32.30;59.60;;;;;;5088427;28;20727;-77
2023/06/05 12:11:26;;;;;;;3.35;3.15;;;32.40;58.40;;;;;;5104678;28;20232;-77
2023/06/05 12:13:56;;;;;;;3.10;3.00;;;32.60;58.80;;;;;;5096250;28;20173;-78
2023/06/05 12:16:35;;;;;;;2.80;2.67;;;33.00;59.20;;;;;;5104282;28;20177;-77
2023/06/05 12:19:15;;;;;;;2.50;2.40;;;33.30;58.60;;;;;;5099194;28;20184;-75
2023/06/05 12:21:41;;;;;;;4.07;3.20;;;33.70;58.60;;;;;;5111492;28;20181;-77
2023/06/05 12:24:07;;;;;;;2.95;2.85;;;34.20;58.00;;;;;;5088192;28;20181;-77
2023/06/05 12:26:53;;;;;;;2.78;2.67;;;34.60;56.70;;;;;;5103462;28;20667;-77
2023/06/05 12:29:21;;;;;;;2.88;2.80;;;35.00;55.50;;;;;;5089764;28;20269;-77
2023/06/05 12:31:47;;;;;;;2.85;2.67;;;34.80;53.60;;;;;;5105327;28;20220;-77
2023/06/05 12:34:15;;;;;;;3.05;2.70;;;34.40;53.50;;;;;;5103994;28;20262;-77
2023/06/05 12:36:42;;;;;;;3.53;2.70;;;33.80;57.80;;;;;;5103638;28;20293;-77
2023/06/05 12:39:10;;;;;;;3.42;3.15;;;33.60;58.80;;;;;;5086245;28;20597;-77
2023/06/05 12:41:36;;;;;;;2.85;2.75;;;33.20;57.20;;;;;;5095277;28;20189;-77
2023/06/05 12:44:06;;;;;;;2.88;2.67;;;32.80;58.70;;;;;;5073608;28;20181;-77
2023/06/05 12:46:33;;;;;;;2.53;2.53;;;32.50;61.20;;;;;;5094951;28;20261;-77
2023/06/05 12:49:03;;;;;;;2.78;2.67;;;32.40;60.30;;;;;;5087302;28;20186;-72
2023/06/05 12:51:29;;;;;;;3.00;2.90;;;32.60;58.90;;;;;;5092707;28;20200;-77
2023/06/05 12:53:56;;;;;;;2.80;2.70;;;32.90;59.20;;;;;;5089061;28;20603;-77
2023/06/05 12:56:26;;;;;;;2.70;2.60;;;33.10;57.50;;;;;;5064036;28;20182;-77
2023/06/05 12:58:56;;;;;;;2.90;2.60;;;33.20;57.60;;;;;;5092774;28;20242;-78
2023/06/05 13:01:25;;;;;;;3.00;2.90;;;33.30;59.20;;;;;;5085359;28;20629;-78
2023/06/05 13:03:51;;;;;;;2.70;2.60;;;33.10;57.50;;;;;;5092511;28;20178;-78
2023/06/05 13:06:18;;;;;;;2.45;2.35;;;32.70;58.00;;;;;;5091940;28;20173;-77
2023/06/05 13:08:44;;;;;;;2.72;2.65;;;32.40;57.60;;;;;;5087715;28;20201;-77
2023/06/05 13:11:11;;;;;;;2.63;2.47;;;32.30;59.40;;;;;;5073753;28;20610;-78
2023/06/05 13:13:37;;;;;;;2.78;2.67;;;32.10;59.00;;;;;;5073784;28;20181;-77
2023/06/05 13:16:05;;;;;;;2.65;2.55;;;32.10;58.70;;;;;;5090035;28;20258;-76
2023/06/05 13:18:31;;;;;;;2.38;2.28;;;31.90;58.30;;;;;;5072499;28;20174;-76
2023/06/05 13:20:57;;;;;;;2.80;2.60;;;31.60;59.40;;;;;;5084356;28;20173;-76
2023/06/05 13:23:22;;;;;;;2.35;2.35;;;31.30;60.50;;;;;;5097099;28;20181;-76
2023/06/05 13:25:48;;;;;;;2.53;2.50;;;30.70;60.30;;;;;;5094607;28;20173;-76
2023/06/05 13:28:13;;;;;;;3.40;2.72;;;29.60;60.10;;;;;;5100086;28;20253;-76
2023/06/05 13:30:39;;;;;;;2.40;2.30;;;29.20;61.40;;;;;;5090227;28;20301;-76
2023/06/05 13:33:05;;;;;;;2.88;2.70;;;28.60;63.90;;;;;;5097611;28;20182;-76
2023/06/05 13:35:31;;;;;;;2.38;2.28;;;28.30;64.80;;;;;;5076185;28;20181;-76
2023/06/05 13:37:57;;;;;;;2.53;2.42;;;;;;;;;;5087008;28;20178;-76
2023/06/05 13:40:22;;;;;;;2.58;2.50;;;28.30;65.60;;;;;;5089147;28;20374;-78
2023/06/05 13:42:50;;;;;;;1.83;1.83;;;28.40;64.80;;;;;;5098142;28;20647;-77
2023/06/05 13:45:16;;;;;;;2.63;2.42;;;28.70;65.40;;;;;;5075613;28;20592;-77
2023/06/05 13:47:42;;;;;;;2.95;2.75;;;29.40;63.50;;;;;;5096624;28;20178;-77
2023/06/05 13:50:08;;;;;;;2.45;2.35;;;29.60;63.30;;;;;;5094150;28;20833;-76
2023/06/05 13:52:33;;;;;;;2.90;2.80;;;29.40;62.80;;;;;;5072534;28;20186;-76
2023/06/05 13:54:59;;;;;;;2.80;2.60;;;29.10;63.00;;;;;;5085363;28;20608;-76
2023/06/05 13:57:25;;;;;;;2.42;2.25;;;28.90;64.20;;;;;;5089007;28;20182;-75
2023/06/05 13:59:50;;;;;;;3.13;2.70;;;28.60;64.30;;;;;;5090307;28;20646;-76
2023/06/05 14:02:16;;;;;;;2.90;2.80;;;;;;;;;;5092710;28;20251;-78
2023/06/05 14:04:42;;;;;;;2.63;2.53;;;;;;;;;;5095463;28;20181;-76
2023/06/05 14:07:08;;;;;;;2.20;2.17;;;;;;;;;;5087606;28;20227;-75
2023/06/05 14:09:34;;;;;;;2.42;2.28;;;27.10;67.40;;;;;;5087945;28;20209;-76
2023/06/05 14:12:00;;;;;;;2.63;2.50;;;26.90;67.90;;;;;;5096013;28;20750;-76
2023/06/05 14:14:26;;;;;;;2.50;2.30;;;;;;;;;;5089470;28;20213;-76
2023/06/05 14:16:52;;;;;;;2.88;2.78;;;;;;;;;;5094220;28;20174;-76
2023/06/05 14:19:18;;;;;;;2.78;2.10;;;26.50;67.70;;;;;;5090596;28;20182;-76
2023/06/05 14:21:44;;;;;;;3.00;2.35;;;;;;;;;;5088127;28;20174;-77
2023/06/05 14:24:11;;;;;;;2.85;2.65;;;;;;;;;;5086183;28;20178;-77
2023/06/05 14:26:37;;;;;;;2.90;2.72;;;;;;;;;;5093091;28;20642;-77
2023/06/05 14:29:03;;;;;;;2.92;2.83;;;26.20;68.20;;;;;;5087720;28;20186;-78
2023/06/05 14:31:29;;;;;;;3.20;3.03;;;26.20;67.70;;;;;;5089605;28;20194;-77
2023/06/05 14:33:56;;;;;;;2.70;2.60;;;26.20;67.30;;;;;;5090545;28;20623;-75
2023/06/05 14:36:22;;;;;;;3.03;2.30;;;;;;;;;;5089513;28;20218;-75
2023/06/05 14:38:47;;;;;;;4.32;2.25;;;;;;;;;;5088788;28;20186;-76
2023/06/05 14:41:13;;;;;;;2.78;2.60;;;;;;;;;;5089336;28;20190;-76
2023/06/05 14:43:39;;;;;;;3.28;3.08;;;;;;;;;;5092314;28;20174;-76
2023/06/05 14:46:05;;;;;;;2.47;2.42;;;;;;;;;;5085272;28;20541;-76
2023/06/05 14:48:31;;;;;;;2.47;2.38;;;;;;;;;;5091570;28;20193;-78
2023/06/05 14:50:58;;;;;;;2.78;2.60;;;;;;;;;;5092253;28;20213;-75
2023/06/05 14:53:24;;;;;;;2.45;2.40;;;25.60;69.20;;;;;;5072556;28;20302;-78
2023/06/05 14:55:50;;;;;;;2.75;2.58;;;;;;;;;;5090578;28;20173;-79
2023/06/05 14:58:16;;;;;;;2.53;2.25;;;25.30;69.30;;;;;;5092590;28;20204;-76
2023/06/05 15:00:42;;;;;;;3.53;2.22;;;25.20;70.20;;;;;;5092995;28;20170;-76
2023/06/05 15:03:08;;;;;;;2.65;2.55;;;25.00;70.60;;;;;;5089948;28;20753;-75
2023/06/05 15:05:34;;;;;;;2.42;2.33;;;;;;;;;;5088402;28;20175;-75
2023/06/05 15:08:00;;;;;;;3.75;2.75;;;;;;;;;;5073033;28;20211;-76
2023/06/05 15:10:27;;;;;;;2.35;2.35;;;;;;;;;;5095870;28;20206;-78
2023/06/05 15:12:57;;;;;;;3.28;2.50;;;24.50;71.50;;;;;;5090077;28;20201;-77
2023/06/05 15:15:23;;;;;;;2.65;2.55;;;24.40;71.40;;;;;;5089041;28;20182;-77
2023/06/05 15:17:52;;;;;;;2.47;2.28;;;;;;;;;;5088907;28;20171;-77
2023/06/05 15:20:18;;;;;;;3.15;2.72;;;24.20;72.10;;;;;;5069584;28;20242;-77
2023/06/05 15:22:44;;;;;;;2.95;2.85;;;24.10;72.50;;;;;;5088628;28;20185;-77
2023/06/05 15:25:10;;;;;;;4.10;2.80;;;;;;;;;;5092983;28;20189;-78
2023/06/05 15:27:37;;;;;;;2.65;2.45;;;24.30;72.70;;;;;;5090516;28;20647;-78
2023/06/05 15:30:04;;;;;;;3.03;2.75;;;24.40;72.20;;;;;;5069885;28;20237;-78
2023/06/05 15:32:30;;;;;;;2.83;2.72;;;;;;;;;;5085578;28;20185;-77
2023/06/05 15:34:56;;;;;;;3.15;3.05;;;24.50;72.60;;;;;;5074145;28;20201;-78
2023/06/05 15:37:25;;;;;;;5.47;2.65;;;24.50;72.90;;;;;;5071735;28;20208;-79
2023/06/05 15:39:51;;;;;;;3.40;3.10;;;24.50;72.80;;;;;;5073974;28;20610;-80
2023/06/05 15:42:33;;;;;;;2.95;2.78;;;24.40;72.30;;;;;;5061188;28;20203;-78
2023/06/05 15:45:27;;;;;;;2.50;2.40;;;24.40;72.60;;;;;;5076809;28;20218;-78
2023/06/05 15:47:54;;;;;;;3.10;2.70;;;;;;;;;;5054378;28;20213;-78
2023/06/05 15:50:20;;;;;;;3.30;2.97;;;24.00;73.20;;;;;;5076436;28;20218;-78
2023/06/05 15:52:46;;;;;;;4.93;3.03;;;24.00;73.20;;;;;;5076758;28;20217;-80
2023/06/05 15:55:12;;;;;;;3.25;3.15;;;23.90;73.30;;;;;;5079219;28;20206;-78
2023/06/05 15:57:37;;;;;;;2.30;2.30;;;24.00;73.50;;;;;;5079679;28;20206;-78
2023/06/05 16:00:03;;;;;;;2.85;2.75;;;24.00;73.50;;;;;;5076334;28;20255;-81
2023/06/05 16:02:29;;;;;;;3.00;2.80;;;;;;;;;;5079472;28;20698;-78
2023/06/05 16:04:55;;;;;;;3.03;2.83;;;;;;;;;;5079458;28;20277;-77
2023/06/05 16:07:21;;;;;;;2.85;2.65;;;;;;;;;;5074547;28;20202;-80
2023/06/05 16:09:47;;;;;;;2.60;2.50;;;23.50;74.80;;;;;;5075559;28;20218;-76
2023/06/05 16:12:13;;;;;;;2.80;2.38;;;;;;;;;;5078344;28;20194;-77
2023/06/05 16:14:39;;;;;;;2.78;2.58;;;;;;;;;;5078069;28;20596;-80
2023/06/05 16:17:05;;;;;;;3.75;3.17;;;23.20;75.30;;;;;;5088592;28;20201;-81
2023/06/05 16:19:31;;;;;;;2.60;2.40;;;23.20;75.30;;;;;;5081056;28;20213;-79
2023/06/05 16:21:58;;;;;;;3.85;2.55;;;23.10;75.80;;;;;;5057632;28;20206;-78
2023/06/05 16:24:23;;;;;;;2.58;2.50;;;23.00;75.50;;;;;;5099585;27;20587;-78
2023/06/05 16:26:50;;;;;;;3.20;3.00;;;23.00;75.90;;;;;;5070624;28;20206;-80
2023/06/05 16:29:15;;;;;;;4.28;2.95;;;22.90;76.30;;;;;;5060008;28;20297;-79
2023/06/05 16:31:41;;;;;;;2.92;2.83;;;22.80;75.90;;;;;;5079966;28;20278;-79
2023/06/05 16:34:13;;;;;;;2.85;2.65;;;22.80;76.30;;;;;;5096246;28;20189;-79
2023/06/05 16:36:39;;;;;;;2.83;2.72;;;22.60;76.10;;;;;;5071661;28;20205;-78
2023/06/05 16:39:06;;;;;;;4.82;2.72;;;22.60;76.10;;;;;;5096286;28;20174;-78
2023/06/05 16:41:32;;;;;;;3.95;3.65;;;22.60;76.20;;;;;;5062921;28;20206;-78
2023/06/05 16:43:58;;;;;;;3.88;3.67;;;22.60;76.60;;;;;;5083466;28;20185;-79
2023/06/05 16:46:24;;;;;;;2.70;2.70;;;22.50;76.60;;;;;;5086365;28;20179;-78
2023/06/05 16:48:50;;;;;;;3.42;3.05;;;22.50;77.00;;;;;;5095439;28;21119;-79
2023/06/05 16:51:17;;;;;;;5.63;3.28;;;22.50;77.10;;;;;;5094601;28;20214;-79
2023/06/05 16:53:43;;;;;;;3.83;2.67;;;22.50;77.20;;;;;;5082137;28;20173;-79
2023/06/05 16:56:09;;;;;;;3.05;2.95;;;22.40;76.80;;;;;;5100509;28;20171;-79
2023/06/05 16:58:36;;;;;;;3.83;3.33;;;22.40;76.50;;;;;;5074603;28;20690;-76
2023/06/05 17:01:02;;;;;;;2.53;2.42;;;22.40;76.70;;;;;;5082277;28;20209;-78
2023/06/05 17:03:28;;;;;;;2.65;2.55;;;;;;;;;;5088643;28;20186;-78
2023/06/05 17:05:57;;;;;;;2.95;2.85;;;22.20;76.40;;;;;;5089302;28;20209;-76
2023/06/05 17:08:22;;;;;;;2.72;2.63;;;22.20;76.50;;;;;;5087267;28;20182;-78
2023/06/05 17:10:48;;;;;;;2.78;2.55;;;;;;;;;;5098607;28;20216;-78
2023/06/05 17:13:15;;;;;;;3.03;2.88;;;;;;;;;;5093312;28;20251;-73
2023/06/05 17:15:41;;;;;;;3.03;2.83;;;21.90;76.80;;;;;;5091026;28;20179;-73
2023/06/05 17:18:07;;;;;;;2.78;2.50;;;21.80;77.00;;;;;;5088471;28;20170;-73
2023/06/05 17:20:33;;;;;;;2.33;2.22;;;21.70;77.30;;;;;;5086632;28;20213;-77
2023/06/05 17:22:58;;;;;;;2.42;2.42;;;21.70;77.60;;;;;;5078045;28;20646;-80
2023/06/05 17:25:24;;;;;;;2.50;2.40;;;21.70;77.40;;;;;;5079721;28;20680;-77
2023/06/05 17:27:50;;;;;;;2.47;2.38;;;;;;;;;;5084558;28;20197;-77
2023/06/05 17:30:16;;;;;;;2.45;2.25;;;21.50;77.30;;;;;;5072563;28;20599;-76
2023/06/05 17:32:42;;;;;;;3.25;2.63;;;21.50;77.50;;;;;;5096179;28;20192;-77
2023/06/05 17:35:08;;;;;;;2.95;2.75;;;21.40;77.60;;;;;;5093665;28;20178;-78
2023/06/05 17:37:34;;;;;;;2.85;2.65;;;21.40;77.70;;;;;;5085050;28;20193;-77
2023/06/05 17:40:01;;;;;;;5.35;2.47;;;21.30;77.60;;;;;;5064031;28;20592;-77
2023/06/05 17:42:27;;;;;;;2.55;2.45;;;21.30;77.60;;;;;;5066627;28;20209;-77
2023/06/05 17:44:52;;;;;;;2.90;2.70;;;21.20;78.10;;;;;;5068598;28;20667;-76
2023/06/05 17:47:18;;;;;;;2.50;2.30;;;21.20;78.00;;;;;;5082372;28;20189;-77
2023/06/05 17:49:44;;;;;;;2.20;2.05;;;21.20;78.00;;;;;;5060873;28;20237;-77
2023/06/05 17:52:09;;;;;;;2.72;2.63;;;21.00;78.90;;;;;;5081120;28;20197;-77
2023/06/05 17:54:35;;;;;;;2.80;2.60;;;;;;;;;;5079507;28;20263;-76
2023/06/05 17:57:01;;;;;;;2.63;2.53;;;;;;;;;;5075988;28;20259;-80
2023/06/05 17:59:27;;;;;;;2.95;2.75;;;20.90;78.50;;;;;;5079785;28;20202;-78
2023/06/05 18:01:53;;;;;;;2.60;2.50;;;20.90;78.60;;;;;;5078778;28;20202;-80
2023/06/05 18:04:19;;;;;;;2.13;2.05;;;20.90;78.90;;;;;;5067811;28;20202;-78
2023/06/05 18:06:45;;;;;;;2.67;2.58;;;20.80;78.80;;;;;;5078181;28;20206;-79
2023/06/05 18:09:11;;;;;;;5.20;2.70;;;20.80;79.00;;;;;;5081276;28;20213;-81
2023/06/05 18:11:42;;;;;;;3.45;2.20;;;20.70;79.60;;;;;;5080180;28;20205;-79
2023/06/05 18:14:08;;;;;;;2.65;2.55;;;20.70;79.40;;;;;;5081296;28;20186;-81
2023/06/05 18:16:34;;;;;;;2.47;2.22;;;20.60;79.40;;;;;;5080265;28;20202;-82
2023/06/05 18:18:59;;;;;;;3.05;2.85;;;20.50;79.70;;;;;;5079053;28;20540;-80
2023/06/05 18:21:25;;;;;;;2.50;2.40;;;20.50;79.70;;;;;;5068297;28;20209;-83
2023/06/05 18:23:51;;;;;;;3.20;2.63;;;20.50;79.70;;;;;;5065524;28;20206;-80
2023/06/05 18:26:21;;;;;;;2.47;2.38;;;20.40;80.10;;;;;;5091463;28;20179;-85
2023/06/05 18:28:48;;;;;;;2.28;2.17;;;20.40;79.80;;;;;;5065091;28;20233;-85
2023/06/05 18:31:15;;;;;;;5.97;2.42;;;20.30;80.40;;;;;;5069953;28;20213;-87
2023/06/05 18:33:42;;;;;;;2.85;2.75;;;20.30;80.40;;;;;;5090028;28;20174;-86
2023/06/05 18:36:09;;;;;;;3.58;2.55;;;;;;;;;;5085381;28;20584;-83
2023/06/05 18:38:35;;;;;;;2.70;2.50;;;20.20;80.90;;;;;;5087309;28;20203;-82
2023/06/05 18:41:01;;;;;;;2.88;2.72;;;20.20;80.70;;;;;;5071259;28;20273;-82
2023/06/05 18:43:27;;;;;;;2.65;2.55;;;20.10;80.70;;;;;;5089414;28;20261;-81
2023/06/05 18:45:53;;;;;;;5.72;2.35;;;20.10;80.90;;;;;;5090471;28;20170;-84
2023/06/05 18:48:19;;;;;;;2.38;2.28;;;20.10;80.90;;;;;;5085826;28;20206;-86
2023/06/05 18:50:45;;;;;;;6.15;2.22;;;20.00;81.20;;;;;;5068725;28;20298;-83
2023/06/05 18:53:11;;;;;;;2.78;2.53;;;20.00;81.40;;;;;;5092041;28;20212;-83
2023/06/05 18:55:37;;;;;;;2.38;2.17;;;20.00;80.80;;;;;;5076571;28;20309;-86
2023/06/05 18:58:04;;;;;;;2.13;2.03;;;20.00;81.10;;;;;;5073922;28;20182;-83
2023/06/05 19:00:30;;;;;;;2.22;2.22;;;20.00;81.00;;;;;;5071107;28;20219;-86
2023/06/05 19:02:57;;;;;;;2.38;2.20;;;19.90;81.20;;;;;;5085285;28;20738;-81
2023/06/05 19:05:24;;;;;;;2.13;2.05;;;19.90;81.10;;;;;;5068140;28;20210;-83
2023/06/05 19:07:49;;;;;;;2.50;2.30;;;19.90;81.00;;;;;;5060237;28;21436;-84
2023/06/05 19:10:15;;;;;;;2.45;2.35;;;19.90;81.10;;;;;;5079722;28;21636;-84
2023/06/05 19:12:41;;;;;;;2.47;2.38;;;20.00;81.00;;;;;;5076673;28;20209;-84
2023/06/05 19:15:07;;;;;;;2.50;2.30;;;19.90;81.00;;;;;;5077915;28;20256;-84
2023/06/05 19:17:33;;;;;;;4.78;2.00;;;;;;;;;;5080710;28;20226;-82
2023/06/05 19:19:59;;;;;;;2.03;1.95;;;;;;;;;;5088140;28;20559;-83
2023/06/05 19:22:25;;;;;;;1.95;1.92;;;19.80;81.40;;;;;;5085571;28;20178;-83
2023/06/05 19:24:50;;;;;;;2.15;2.05;;;19.80;81.60;;;;;;5089383;28;20205;-82
2023/06/05 19:27:21;;;;;;;2.60;2.42;;;19.90;81.40;;;;;;5085553;28;20633;-82
2023/06/05 19:29:47;;;;;;;2.55;2.35;;;19.80;81.80;;;;;;5070575;28;20210;-82
2023/06/05 19:32:12;;;;;;;3.03;2.20;;;19.80;81.80;;;;;;5087973;28;20678;-83
2023/06/05 19:34:38;;;;;;;2.67;2.47;;;19.70;82.00;;;;;;5064425;28;20288;-83
2023/06/05 19:37:04;;;;;;;3.13;2.13;;;19.70;81.80;;;;;;5088569;28;20879;-79
2023/06/05 19:39:30;;;;;;;2.28;2.17;;;;;;;;;;5097706;28;20194;-83
2023/06/05 19:41:56;;;;;;;2.90;2.67;;;19.80;81.80;;;;;;5088606;28;20178;-82
2023/06/05 19:44:21;;;;;;;5.47;2.20;;;19.70;81.90;;;;;;5090988;28;20178;-82
2023/06/05 19:46:47;;;;;;;2.65;2.05;;;19.70;81.60;;;;;;5070449;28;20186;-82
2023/06/05 19:49:14;;;;;;;2.90;2.20;;;19.70;82.10;;;;;;5106120;28;20235;-79
2023/06/05 19:51:42;;;;;;;1.83;1.77;;;19.60;81.90;;;;;;5099366;27;20263;-81
2023/06/05 19:54:08;;;;;;;5.35;2.10;;;19.60;81.40;;;;;;5078116;28;20201;-83
2023/06/05 19:56:34;;;;;;;2.00;1.90;;;19.50;81.60;;;;;;5098001;28;20209;-82
2023/06/05 19:59:00;;;;;;;3.10;1.75;;;19.50;81.20;;;;;;5063501;28;20787;-82
2023/06/05 20:01:26;;;;;;;2.13;2.03;;;19.50;81.20;;;;;;5060734;28;20290;-83
2023/06/05 20:03:51;;;;;;;1.98;1.73;;;19.50;80.70;;;;;;5066600;28;20675;-82
2023/06/05 20:06:17;;;;;;;2.85;1.77;;;;;;;;;;5094958;28;20178;-79
2023/06/05 20:08:46;;;;;;;1.70;1.65;;;19.40;80.30;;;;;;5095449;28;20175;-80
2023/06/05 20:11:13;;;;;;;2.47;1.88;;;19.50;79.80;;;;;;5078556;28;20245;-82
2023/06/05 20:13:39;;;;;;;1.65;1.58;;;19.40;79.80;;;;;;5082073;28;20197;-84
2023/06/05 20:16:05;;;;;;;1.83;1.73;;;19.40;80.00;;;;;;5085366;28;20637;-78
2023/06/05 20:18:32;;;;;;;2.30;2.20;;;19.40;79.60;;;;;;5074428;28;20202;-79
2023/06/05 20:20:58;;;;;;;2.05;1.92;;;19.40;79.60;;;;;;5061043;28;20248;-76
2023/06/05 20:23:24;;;;;;;1.33;1.23;;;19.40;79.50;;;;;;5080116;28;20650;-79
2023/06/05 20:25:50;;;;;;;1.90;1.80;;;19.40;79.70;;;;;;5080897;28;20242;-77
2023/06/05 20:28:16;;;;;;;1.52;1.40;;;19.30;79.40;;;;;;5066863;28;20199;-77
2023/06/05 20:30:42;;;;;;;1.65;1.55;;;19.30;79.00;;;;;;5063486;28;20313;-77
2023/06/05 20:33:09;;;;;;;1.65;1.30;;;19.30;78.40;;;;;;5066883;28;20198;-77
2023/06/05 20:35:38;;;;;;;1.20;1.08;;;19.30;77.60;;;;;;5059846;28;20206;-78
2023/06/05 20:38:07;;;;;;;1.63;1.48;;;19.30;78.20;;;;;;5057913;28;20202;-76
2023/06/05 20:40:37;;;;;;;1.25;1.25;;;19.20;78.10;;;;;;5078940;28;20206;-77
2023/06/05 20:43:08;;;;;;;1.17;1.15;;;19.20;77.30;;;;;;5061841;28;20470;-79
2023/06/05 20:45:41;;;;;;;2.13;1.20;;;19.20;77.60;;;;;;5064075;28;20206;-77
2023/06/05 20:48:10;;;;;;;1.30;1.30;;;19.20;77.30;;;;;;5062744;28;20209;-78
2023/06/05 20:50:49;;;;;;;1.25;1.20;;;19.20;76.50;;;;;;5077480;28;20217;-78
2023/06/05 20:53:16;;;;;;;1.10;1.10;;;19.20;76.70;;;;;;5078652;28;20221;-79
2023/06/05 20:55:42;;;;;;;1.40;1.40;;;19.20;76.20;;;;;;5079079;28;20202;-78
2023/06/05 20:58:08;;;;;;;1.88;1.50;;;19.10;76.50;;;;;;5079219;28;20727;-79
2023/06/05 21:00:34;;;;;;;3.30;1.30;;;19.10;76.00;;;;;;5081855;28;20305;-77
2023/06/05 21:03:00;;;;;;;0.85;0.85;;;19.10;75.20;;;;;;5081508;28;20229;-77
2023/06/05 21:05:26;;;;;;;3.45;1.05;;;19.10;75.30;;;;;;5080986;28;20238;-77
2023/06/05 21:07:51;;;;;;;1.15;1.15;;;19.10;75.30;;;;;;5079387;28;20598;-77
2023/06/05 21:10:17;;;;;;;1.10;0.98;;;19.10;74.40;;;;;;5086677;28;20230;-74
2023/06/05 21:12:44;;;;;;;1.27;1.17;;;19.10;74.60;;;;;;5085489;28;20680;-78
2023/06/05 21:15:13;;;;;;;1.63;1.17;;;19.10;74.10;;;;;;5088753;28;20204;-75
2023/06/05 21:17:40;;;;;;;0.90;0.90;;;19.10;74.30;;;;;;5080979;28;20256;-75
2023/06/05 21:20:10;;;;;;;1.60;0.77;;;19.10;73.90;;;;;;5070672;28;20202;-76
2023/06/05 21:22:36;;;;;;;1.10;1.08;;;19.10;74.20;;;;;;5091382;28;20317;-78
2023/06/05 21:25:02;;;;;;;1.17;1.17;;;;;;;;;;5091787;28;20268;-76
2023/06/05 21:27:28;;;;;;;1.15;0.90;;;;;;;;;;5089278;28;20771;-75
2023/06/05 21:29:54;;;;;;;0.80;0.80;;;19.00;73.80;;;;;;5088097;28;20217;-77
2023/06/05 21:32:20;;;;;;;2.83;0.82;;;19.00;73.50;;;;;;5090999;28;20251;-75
2023/06/05 21:34:47;;;;;;;1.45;0.85;;;19.00;72.70;;;;;;5095646;28;20209;-77
2023/06/05 21:37:14;;;;;;;1.00;0.85;;;19.00;73.50;;;;;;5097781;28;20188;-76
2023/06/05 21:39:40;;;;;;;0.75;0.75;;;19.00;72.40;;;;;;5088243;28;20186;-76
2023/06/05 21:42:13;;;;;;;0.47;0.47;;;18.90;73.10;;;;;;5098139;28;20590;-76
2023/06/05 21:44:41;;;;;;;2.10;0.75;;;18.90;72.80;;;;;;5079806;28;20174;-76
2023/06/05 21:47:07;;;;;;;2.92;0.70;;;18.90;72.90;;;;;;5078322;28;20563;-76
2023/06/05 21:49:33;;;;;;;0.77;0.77;;;;;;;;;;5091523;28;20174;-77
2023/06/05 21:51:58;;;;;;;0.82;0.82;;;18.80;73.00;;;;;;5091074;28;20189;-76
2023/06/05 21:54:24;;;;;;;0.80;0.80;;;;;;;;;;5091167;28;20576;-76
2023/06/05 21:56:50;;;;;;;0.70;0.70;;;;;;;;;;5094223;28;20234;-77
2023/06/05 21:59:16;;;;;;;0.90;0.90;;;;;;;;;;5091037;28;20187;-76
2023/06/05 22:01:42;;;;;;;0.70;0.70;;;18.80;72.00;;;;;;5092539;28;20178;-76
2023/06/05 22:04:09;;;;;;;0.65;0.65;;;18.70;72.50;;;;;;5076253;28;20220;-76
2023/06/05 22:06:35;;;;;;;0.93;0.70;;;;;;;;;;5094845;28;20173;-77
2023/06/05 22:09:03;;;;;;;0.60;0.60;;;;;;;;;;5074779;28;20547;-76
2023/06/05 22:11:32;;;;;;;0.68;0.68;;;18.70;72.40;;;;;;5082141;28;20214;-76
2023/06/05 22:13:59;;;;;;;0.60;0.50;;;18.60;71.90;;;;;;5074914;28;20679;-76
2023/06/05 22:16:27;;;;;;;1.55;1.02;;;18.60;71.40;;;;;;5080348;28;20239;-76
2023/06/05 22:18:53;;;;;;;0.65;0.65;;;18.60;71.50;;;;;;5066728;28;20178;-76
2023/06/05 22:21:21;;;;;;;0.70;0.70;;;18.50;70.90;;;;;;5085443;28;20186;-76
2023/06/05 22:23:49;;;;;;;1.40;1.05;;;18.50;71.50;;;;;;5079077;28;20231;-76
2023/06/05 22:26:15;;;;;;;0.60;0.60;;;18.40;71.50;;;;;;5096576;28;20225;-76
2023/06/05 22:28:42;;;;;;;0.80;0.80;;;18.40;71.70;;;;;;5089586;28;20638;-76
2023/06/05 22:31:09;;;;;;;0.70;0.70;;;18.30;71.30;;;;;;5074496;28;20308;-76
2023/06/05 22:33:35;;;;;;;0.55;0.55;;;18.30;72.00;;;;;;5084527;28;20179;-76
2023/06/05 22:36:02;;;;;;;0.60;0.60;;;18.20;71.60;;;;;;5094644;28;20185;-76
2023/06/05 22:38:30;;;;;;;0.80;0.80;;;;;;;;;;5095062;28;20745;-77
2023/06/05 22:40:56;;;;;;;0.70;0.70;;;18.10;71.90;;;;;;5076578;28;20188;-76
2023/06/05 22:43:22;;;;;;;0.75;0.65;;;;;;;;;;5096307;28;20194;-76
2023/06/05 22:45:49;;;;;;;6.07;0.68;;;18.00;72.10;;;;;;5091943;28;20197;-76
2023/06/05 22:48:17;;;;;;;1.15;0.68;;;18.00;71.20;;;;;;5090789;28;20190;-76
2023/06/05 22:50:44;;;;;;;0.55;0.55;;;18.00;71.80;;;;;;5097968;28;20217;-76
2023/06/05 22:53:10;;;;;;;0.45;0.45;;;;;;;;;;5088142;28;20188;-76
2023/06/05 22:55:39;;;;;;;0.50;0.50;;;;;;;;;;5070603;28;20182;-76
2023/06/05 22:58:05;;;;;;;3.00;0.55;;;;;;;;;;5094964;28;20212;-76
2023/06/05 23:00:30;;;;;;;0.63;0.63;;;17.90;72.20;;;;;;5089775;28;20190;-76
2023/06/05 23:02:58;;;;;;;0.57;0.57;;;17.80;72.50;;;;;;5098568;28;20174;-76
2023/06/05 23:05:24;;;;;;;0.70;0.70;;;17.90;71.90;;;;;;5076260;28;20243;-76
2023/06/05 23:07:50;;;;;;;0.57;0.57;;;;;;;;;;5101103;28;20182;-76
2023/06/05 23:10:15;;;;;;;2.20;0.75;;;17.80;72.80;;;;;;5092648;28;20722;-76
2023/06/05 23:12:41;;;;;;;0.68;0.60;;;17.80;72.50;;;;;;5092313;28;20194;-76
2023/06/05 23:15:07;;;;;;;0.60;0.60;;;17.80;72.60;;;;;;5095066;28;20180;-76
2023/06/05 23:17:33;;;;;;;0.45;0.45;;;17.70;72.80;;;;;;5094250;28;20265;-76
2023/06/05 23:19:59;;;;;;;0.50;0.50;;;17.70;72.90;;;;;;5090076;28;20268;-76
2023/06/05 23:22:25;;;;;;;0.65;0.65;;;;;;;;;;5092461;28;20647;-73
2023/06/05 23:24:50;;;;;;;0.60;0.60;;;17.70;72.50;;;;;;5093442;28;20173;-75
2023/06/05 23:27:16;;;;;;;0.75;0.70;;;17.70;72.60;;;;;;5089532;28;20666;-75
2023/06/05 23:29:44;;;;;;;0.55;0.55;;;;;;;;;;5088289;28;20730;-75
2023/06/05 23:32:10;;;;;;;0.55;0.55;;;;;;;;;;5087685;28;20195;-75
2023/06/05 23:34:36;;;;;;;3.55;0.60;;;;;;;;;;5089166;28;20185;-74
2023/06/05 23:37:02;;;;;;;0.38;0.38;;;;;;;;;;5094417;28;20732;-75
2023/06/05 23:39:28;;;;;;;0.55;0.55;;;;;;;;;;5093258;28;20203;-75
2023/06/05 23:41:54;;;;;;;0.60;0.60;;;;;;;;;;5080084;28;20184;-76
2023/06/05 23:44:19;;;;;;;0.52;0.52;;;17.50;72.90;;;;;;5090782;28;20181;-75
2023/06/05 23:46:45;;;;;;;0.50;0.50;;;;;;;;;;5093756;28;20173;-75
2023/06/05 23:49:12;;;;;;;1.02;0.60;;;17.40;73.00;;;;;;5092028;28;20213;-75
2023/06/05 23:51:38;;;;;;;0.68;0.50;;;17.40;73.30;;;;;;5091974;28;20209;-76
2023/06/05 23:54:04;;;;;;;0.75;0.52;;;;;;;;;;5097770;28;20185;-75
2023/06/05 23:56:29;;;;;;;0.35;0.35;;;17.30;74.10;;;;;;5087610;28;20581;-76
2023/06/05 23:58:56;;;;;;;0.70;0.70;;;;;;;;;;5091687;28;20182;-75
